sensor_id;sensor_type;location;lat;lon;timestamp;temperature;humidity
67163;DHT22;54092;53.088;8.850;2023-05-02T00:01:57;12.20;99.90
67163;DHT22;54092;53.088;8.850;2023-05-02T00:04:22;12.20;99.90
67163;DHT22;54092;53.088;8.850;2023-05-02T00:06:50;12.10;99.90
67163;DHT22;54092;53.088;8.850;2023-05-02T00:09:16;12.20;99.90
67163;DHT22;54092;53.088;8.850;2023-05-02T00:11:42;12.10;99.90
67163;DHT22;54092;53.088;8.850;2023-05-02T00:14:08;12.10;99.90
67163;DHT22;54092;53.088;8.850;2023-05-02T00:16:33;12.20;99.90
67163;DHT22;54092;53.088;8.850;2023-05-02T00:18:58;12.10;99.90
67163;DHT22;54092;53.088;8.850;2023-05-02T00:21:24;12.10;99.90
67163;DHT22;54092;53.088;8.850;2023-05-02T00:23:52;12.10;99.90
67163;DHT22;54092;53.088;8.850;2023-05-02T00:26:18;12.10;99.90
67163;DHT22;54092;53.088;8.850;2023-05-02T00:28:43;12.10;99.90
67163;DHT22;54092;53.088;8.850;2023-05-02T00:31:09;12.10;99.90
67163;DHT22;54092;53.088;8.850;2023-05-02T00:33:34;12.10;99.90
67163;DHT22;54092;53.088;8.850;2023-05-02T00:36:00;12.20;99.90
67163;DHT22;54092;53.088;8.850;2023-05-02T00:38:25;12.20;99.90
67163;DHT22;54092;53.088;8.850;2023-05-02T00:40:51;12.20;99.90
67163;DHT22;54092;53.088;8.850;2023-05-02T00:43:17;12.20;99.90
67163;DHT22;54092;53.088;8.850;2023-05-02T00:45:44;12.20;99.90
67163;DHT22;54092;53.088;8.850;2023-05-02T00:48:11;12.20;99.90
67163;DHT22;54092;53.088;8.850;2023-05-02T00:50:37;12.20;99.90
67163;DHT22;54092;53.088;8.850;2023-05-02T00:53:05;12.10;99.90
67163;DHT22;54092;53.088;8.850;2023-05-02T00:55:31;12.10;99.90
67163;DHT22;54092;53.088;8.850;2023-05-02T00:57:59;12.10;99.90
67163;DHT22;54092;53.088;8.850;2023-05-02T01:00:41;12.10;99.90
67163;DHT22;54092;53.088;8.850;2023-05-02T01:03:19;12.10;99.90
67163;DHT22;54092;53.088;8.850;2023-05-02T01:08:54;12.10;99.90
67163;DHT22;54092;53.088;8.850;2023-05-02T01:13:52;12.10;99.90
67163;DHT22;54092;53.088;8.850;2023-05-02T01:16:19;12.10;99.90
67163;DHT22;54092;53.088;8.850;2023-05-02T01:18:47;12.00;99.90
67163;DHT22;54092;53.088;8.850;2023-05-02T01:21:14;12.00;99.90
67163;DHT22;54092;53.088;8.850;2023-05-02T01:24:09;12.00;99.90
67163;DHT22;54092;53.088;8.850;2023-05-02T01:26:50;12.00;99.90
67163;DHT22;54092;53.088;8.850;2023-05-02T01:29:17;12.00;99.90
67163;DHT22;54092;53.088;8.850;2023-05-02T01:31:47;11.90;99.90
67163;DHT22;54092;53.088;8.850;2023-05-02T01:34:15;11.90;99.90
67163;DHT22;54092;53.088;8.850;2023-05-02T01:36:47;11.80;99.90
67163;DHT22;54092;53.088;8.850;2023-05-02T01:39:19;11.80;99.90
67163;DHT22;54092;53.088;8.850;2023-05-02T01:41:48;11.80;99.90
67163;DHT22;54092;53.088;8.850;2023-05-02T01:44:15;11.70;99.90
67163;DHT22;54092;53.088;8.850;2023-05-02T01:46:42;11.70;99.90
67163;DHT22;54092;53.088;8.850;2023-05-02T01:49:09;11.70;99.90
67163;DHT22;54092;53.088;8.850;2023-05-02T01:51:42;11.70;99.90
67163;DHT22;54092;53.088;8.850;2023-05-02T01:54:09;11.50;99.90
67163;DHT22;54092;53.088;8.850;2023-05-02T01:56:37;11.40;99.90
67163;DHT22;54092;53.088;8.850;2023-05-02T01:59:05;11.30;99.90
67163;DHT22;54092;53.088;8.850;2023-05-02T02:01:34;11.20;99.90
67163;DHT22;54092;53.088;8.850;2023-05-02T02:04:00;11.20;99.90
67163;DHT22;54092;53.088;8.850;2023-05-02T02:06:26;11.10;99.90
67163;DHT22;54092;53.088;8.850;2023-05-02T02:08:52;11.10;99.90
67163;DHT22;54092;53.088;8.850;2023-05-02T02:11:25;11.00;99.90
67163;DHT22;54092;53.088;8.850;2023-05-02T02:13:56;10.90;99.90
67163;DHT22;54092;53.088;8.850;2023-05-02T02:16:29;10.90;99.90
67163;DHT22;54092;53.088;8.850;2023-05-02T02:18:56;10.90;99.90
67163;DHT22;54092;53.088;8.850;2023-05-02T02:21:24;10.80;99.90
67163;DHT22;54092;53.088;8.850;2023-05-02T02:23:54;10.70;99.90
67163;DHT22;54092;53.088;8.850;2023-05-02T02:26:22;10.70;99.90
67163;DHT22;54092;53.088;8.850;2023-05-02T02:28:48;10.70;99.90
67163;DHT22;54092;53.088;8.850;2023-05-02T02:31:13;10.70;99.90
67163;DHT22;54092;53.088;8.850;2023-05-02T02:33:39;10.70;99.90
67163;DHT22;54092;53.088;8.850;2023-05-02T02:36:32;10.60;99.90
67163;DHT22;54092;53.088;8.850;2023-05-02T02:41:45;10.40;99.90
67163;DHT22;54092;53.088;8.850;2023-05-02T02:47:31;10.10;99.90
67163;DHT22;54092;53.088;8.850;2023-05-02T02:52:53;10.00;99.90
67163;DHT22;54092;53.088;8.850;2023-05-02T02:55:52;9.90;99.90
67163;DHT22;54092;53.088;8.850;2023-05-02T03:01:10;9.80;99.90
67163;DHT22;54092;53.088;8.850;2023-05-02T03:03:39;9.80;99.90
67163;DHT22;54092;53.088;8.850;2023-05-02T03:06:06;9.80;99.90
67163;DHT22;54092;53.088;8.850;2023-05-02T03:08:42;9.80;99.90
67163;DHT22;54092;53.088;8.850;2023-05-02T03:11:08;9.70;99.90
67163;DHT22;54092;53.088;8.850;2023-05-02T03:13:37;9.60;99.90
67163;DHT22;54092;53.088;8.850;2023-05-02T03:18:41;9.60;99.90
67163;DHT22;54092;53.088;8.850;2023-05-02T03:21:06;9.60;99.90
67163;DHT22;54092;53.088;8.850;2023-05-02T03:23:32;9.50;99.90
67163;DHT22;54092;53.088;8.850;2023-05-02T03:25:57;9.60;99.90
67163;DHT22;54092;53.088;8.850;2023-05-02T03:28:23;9.50;99.90
67163;DHT22;54092;53.088;8.850;2023-05-02T03:30:48;9.50;99.90
67163;DHT22;54092;53.088;8.850;2023-05-02T03:33:14;9.50;99.90
67163;DHT22;54092;53.088;8.850;2023-05-02T03:35:39;9.40;99.90
67163;DHT22;54092;53.088;8.850;2023-05-02T03:38:06;9.40;99.90
67163;DHT22;54092;53.088;8.850;2023-05-02T03:40:32;9.30;99.90
67163;DHT22;54092;53.088;8.850;2023-05-02T03:42:57;9.20;99.90
67163;DHT22;54092;53.088;8.850;2023-05-02T03:45:23;9.10;99.90
67163;DHT22;54092;53.088;8.850;2023-05-02T03:47:48;9.10;99.90
67163;DHT22;54092;53.088;8.850;2023-05-02T03:50:14;9.10;99.90
67163;DHT22;54092;53.088;8.850;2023-05-02T03:52:39;9.10;99.90
67163;DHT22;54092;53.088;8.850;2023-05-02T03:55:05;9.10;99.90
67163;DHT22;54092;53.088;8.850;2023-05-02T03:57:32;9.10;99.90
67163;DHT22;54092;53.088;8.850;2023-05-02T03:59:57;9.10;99.90
67163;DHT22;54092;53.088;8.850;2023-05-02T04:02:23;9.00;99.90
67163;DHT22;54092;53.088;8.850;2023-05-02T04:04:49;8.90;99.90
67163;DHT22;54092;53.088;8.850;2023-05-02T04:07:15;8.80;99.90
67163;DHT22;54092;53.088;8.850;2023-05-02T04:09:44;8.80;99.90
67163;DHT22;54092;53.088;8.850;2023-05-02T04:12:09;8.80;99.90
67163;DHT22;54092;53.088;8.850;2023-05-02T04:14:35;8.80;99.90
67163;DHT22;54092;53.088;8.850;2023-05-02T04:17:00;8.80;99.90
67163;DHT22;54092;53.088;8.850;2023-05-02T04:19:26;8.80;99.90
67163;DHT22;54092;53.088;8.850;2023-05-02T04:21:52;8.80;99.90
67163;DHT22;54092;53.088;8.850;2023-05-02T04:24:17;8.80;99.90
67163;DHT22;54092;53.088;8.850;2023-05-02T04:26:43;8.80;99.90
67163;DHT22;54092;53.088;8.850;2023-05-02T04:29:08;8.80;99.90
67163;DHT22;54092;53.088;8.850;2023-05-02T04:31:34;8.80;99.90
67163;DHT22;54092;53.088;8.850;2023-05-02T04:34:00;8.80;99.90
67163;DHT22;54092;53.088;8.850;2023-05-02T04:36:26;8.90;99.90
67163;DHT22;54092;53.088;8.850;2023-05-02T04:38:52;8.80;99.90
67163;DHT22;54092;53.088;8.850;2023-05-02T04:41:18;8.80;99.90
67163;DHT22;54092;53.088;8.850;2023-05-02T04:43:43;8.80;99.90
67163;DHT22;54092;53.088;8.850;2023-05-02T04:46:09;8.80;99.90
67163;DHT22;54092;53.088;8.850;2023-05-02T04:48:34;8.70;99.90
67163;DHT22;54092;53.088;8.850;2023-05-02T04:51:00;8.70;99.90
67163;DHT22;54092;53.088;8.850;2023-05-02T04:53:26;8.80;99.90
67163;DHT22;54092;53.088;8.850;2023-05-02T04:55:52;8.70;99.90
67163;DHT22;54092;53.088;8.850;2023-05-02T04:58:17;8.60;99.90
67163;DHT22;54092;53.088;8.850;2023-05-02T05:00:43;8.60;99.90
67163;DHT22;54092;53.088;8.850;2023-05-02T05:03:08;8.60;99.90
67163;DHT22;54092;53.088;8.850;2023-05-02T05:05:34;8.60;99.90
67163;DHT22;54092;53.088;8.850;2023-05-02T05:07:59;8.60;99.90
67163;DHT22;54092;53.088;8.850;2023-05-02T05:10:25;8.60;99.90
67163;DHT22;54092;53.088;8.850;2023-05-02T05:12:50;8.60;99.90
67163;DHT22;54092;53.088;8.850;2023-05-02T05:15:17;8.60;99.90
67163;DHT22;54092;53.088;8.850;2023-05-02T05:17:46;8.60;99.90
67163;DHT22;54092;53.088;8.850;2023-05-02T05:20:11;8.60;99.90
67163;DHT22;54092;53.088;8.850;2023-05-02T05:22:41;8.60;99.90
67163;DHT22;54092;53.088;8.850;2023-05-02T05:25:08;8.60;99.90
67163;DHT22;54092;53.088;8.850;2023-05-02T05:27:34;8.50;99.90
67163;DHT22;54092;53.088;8.850;2023-05-02T05:30:00;8.50;99.90
67163;DHT22;54092;53.088;8.850;2023-05-02T05:32:26;8.50;99.90
67163;DHT22;54092;53.088;8.850;2023-05-02T05:34:52;8.60;99.90
67163;DHT22;54092;53.088;8.850;2023-05-02T05:37:20;8.70;99.90
67163;DHT22;54092;53.088;8.850;2023-05-02T05:39:46;8.70;99.90
67163;DHT22;54092;53.088;8.850;2023-05-02T05:42:12;8.80;99.90
67163;DHT22;54092;53.088;8.850;2023-05-02T05:44:38;8.90;99.90
67163;DHT22;54092;53.088;8.850;2023-05-02T05:47:04;8.90;99.90
67163;DHT22;54092;53.088;8.850;2023-05-02T05:49:30;8.90;99.90
67163;DHT22;54092;53.088;8.850;2023-05-02T05:51:55;8.90;99.90
67163;DHT22;54092;53.088;8.850;2023-05-02T05:54:21;8.80;99.90
67163;DHT22;54092;53.088;8.850;2023-05-02T05:56:46;8.90;99.90
67163;DHT22;54092;53.088;8.850;2023-05-02T05:59:12;8.90;99.90
67163;DHT22;54092;53.088;8.850;2023-05-02T06:01:38;8.90;99.90
67163;DHT22;54092;53.088;8.850;2023-05-02T06:04:04;8.80;99.90
67163;DHT22;54092;53.088;8.850;2023-05-02T06:06:30;8.70;99.90
67163;DHT22;54092;53.088;8.850;2023-05-02T06:08:56;8.60;99.90
67163;DHT22;54092;53.088;8.850;2023-05-02T06:11:22;8.50;99.90
67163;DHT22;54092;53.088;8.850;2023-05-02T06:13:51;8.50;99.90
67163;DHT22;54092;53.088;8.850;2023-05-02T06:16:17;8.50;99.90
67163;DHT22;54092;53.088;8.850;2023-05-02T06:18:43;8.60;99.90
67163;DHT22;54092;53.088;8.850;2023-05-02T06:21:09;8.60;99.90
67163;DHT22;54092;53.088;8.850;2023-05-02T06:23:35;8.60;99.90
67163;DHT22;54092;53.088;8.850;2023-05-02T06:26:02;8.70;99.90
67163;DHT22;54092;53.088;8.850;2023-05-02T06:28:28;8.60;99.90
67163;DHT22;54092;53.088;8.850;2023-05-02T06:31:01;8.50;99.90
67163;DHT22;54092;53.088;8.850;2023-05-02T06:33:28;8.40;99.90
67163;DHT22;54092;53.088;8.850;2023-05-02T06:35:54;8.50;99.90
67163;DHT22;54092;53.088;8.850;2023-05-02T06:38:20;8.40;99.90
67163;DHT22;54092;53.088;8.850;2023-05-02T06:40:45;8.40;99.90
67163;DHT22;54092;53.088;8.850;2023-05-02T06:43:11;8.40;99.90
67163;DHT22;54092;53.088;8.850;2023-05-02T06:45:38;8.50;99.90
67163;DHT22;54092;53.088;8.850;2023-05-02T06:48:04;8.50;99.90
67163;DHT22;54092;53.088;8.850;2023-05-02T06:50:29;8.60;99.90
67163;DHT22;54092;53.088;8.850;2023-05-02T06:52:55;8.60;99.90
67163;DHT22;54092;53.088;8.850;2023-05-02T06:55:21;8.60;99.90
67163;DHT22;54092;53.088;8.850;2023-05-02T06:57:50;8.60;99.90
67163;DHT22;54092;53.088;8.850;2023-05-02T07:00:17;8.70;99.90
67163;DHT22;54092;53.088;8.850;2023-05-02T07:02:44;8.70;99.90
67163;DHT22;54092;53.088;8.850;2023-05-02T07:05:09;8.90;99.90
67163;DHT22;54092;53.088;8.850;2023-05-02T07:07:35;9.00;99.90
67163;DHT22;54092;53.088;8.850;2023-05-02T07:10:02;9.10;99.90
67163;DHT22;54092;53.088;8.850;2023-05-02T07:12:27;9.10;99.90
67163;DHT22;54092;53.088;8.850;2023-05-02T07:14:53;9.10;99.90
67163;DHT22;54092;53.088;8.850;2023-05-02T07:17:19;9.10;99.90
67163;DHT22;54092;53.088;8.850;2023-05-02T07:19:44;9.10;99.90
67163;DHT22;54092;53.088;8.850;2023-05-02T07:22:10;9.10;99.90
67163;DHT22;54092;53.088;8.850;2023-05-02T07:24:39;9.00;99.90
67163;DHT22;54092;53.088;8.850;2023-05-02T07:27:07;9.00;99.90
67163;DHT22;54092;53.088;8.850;2023-05-02T07:29:32;9.00;99.90
67163;DHT22;54092;53.088;8.850;2023-05-02T07:31:58;9.10;99.90
67163;DHT22;54092;53.088;8.850;2023-05-02T07:34:23;9.10;99.90
67163;DHT22;54092;53.088;8.850;2023-05-02T07:36:49;9.10;99.90
67163;DHT22;54092;53.088;8.850;2023-05-02T07:39:14;9.20;99.90
67163;DHT22;54092;53.088;8.850;2023-05-02T07:41:40;9.20;99.90
67163;DHT22;54092;53.088;8.850;2023-05-02T07:44:05;9.10;99.90
67163;DHT22;54092;53.088;8.850;2023-05-02T07:46:31;9.20;99.90
67163;DHT22;54092;53.088;8.850;2023-05-02T07:48:56;9.20;99.90
67163;DHT22;54092;53.088;8.850;2023-05-02T07:51:22;9.40;99.90
67163;DHT22;54092;53.088;8.850;2023-05-02T07:53:50;9.60;99.90
67163;DHT22;54092;53.088;8.850;2023-05-02T07:56:18;9.80;99.90
67163;DHT22;54092;53.088;8.850;2023-05-02T07:58:44;9.70;99.90
67163;DHT22;54092;53.088;8.850;2023-05-02T08:01:09;9.80;99.90
67163;DHT22;54092;53.088;8.850;2023-05-02T08:03:35;9.70;99.90
67163;DHT22;54092;53.088;8.850;2023-05-02T08:06:01;9.70;99.90
67163;DHT22;54092;53.088;8.850;2023-05-02T08:08:27;9.60;99.90
67163;DHT22;54092;53.088;8.850;2023-05-02T08:10:52;9.50;99.90
67163;DHT22;54092;53.088;8.850;2023-05-02T08:13:18;9.60;99.90
67163;DHT22;54092;53.088;8.850;2023-05-02T08:15:43;9.70;99.90
67163;DHT22;54092;53.088;8.850;2023-05-02T08:18:10;9.70;99.90
67163;DHT22;54092;53.088;8.850;2023-05-02T08:20:35;9.70;99.90
67163;DHT22;54092;53.088;8.850;2023-05-02T08:23:01;9.80;99.90
67163;DHT22;54092;53.088;8.850;2023-05-02T08:25:27;9.70;99.90
67163;DHT22;54092;53.088;8.850;2023-05-02T08:27:52;9.70;99.90
67163;DHT22;54092;53.088;8.850;2023-05-02T08:30:18;9.80;99.90
67163;DHT22;54092;53.088;8.850;2023-05-02T08:32:45;9.70;99.90
67163;DHT22;54092;53.088;8.850;2023-05-02T08:35:11;9.70;99.90
67163;DHT22;54092;53.088;8.850;2023-05-02T08:37:38;9.50;99.90
67163;DHT22;54092;53.088;8.850;2023-05-02T08:40:04;9.60;99.90
67163;DHT22;54092;53.088;8.850;2023-05-02T08:42:31;9.60;99.90
67163;DHT22;54092;53.088;8.850;2023-05-02T08:44:57;9.50;99.90
67163;DHT22;54092;53.088;8.850;2023-05-02T08:47:24;9.50;99.90
67163;DHT22;54092;53.088;8.850;2023-05-02T08:49:50;9.50;99.90
67163;DHT22;54092;53.088;8.850;2023-05-02T08:52:19;9.60;99.90
67163;DHT22;54092;53.088;8.850;2023-05-02T08:54:45;10.60;99.90
67163;DHT22;54092;53.088;8.850;2023-05-02T08:57:11;11.70;99.90
67163;DHT22;54092;53.088;8.850;2023-05-02T08:59:36;12.50;99.90
67163;DHT22;54092;53.088;8.850;2023-05-02T09:02:17;12.40;99.90
67163;DHT22;54092;53.088;8.850;2023-05-02T09:04:50;11.70;99.90
67163;DHT22;54092;53.088;8.850;2023-05-02T09:07:18;11.10;99.90
67163;DHT22;54092;53.088;8.850;2023-05-02T09:09:43;10.80;99.90
67163;DHT22;54092;53.088;8.850;2023-05-02T09:12:09;10.70;99.90
67163;DHT22;54092;53.088;8.850;2023-05-02T09:14:35;10.50;99.90
67163;DHT22;54092;53.088;8.850;2023-05-02T09:17:00;10.40;99.90
67163;DHT22;54092;53.088;8.850;2023-05-02T09:19:26;10.30;99.90
67163;DHT22;54092;53.088;8.850;2023-05-02T09:21:58;10.30;99.90
67163;DHT22;54092;53.088;8.850;2023-05-02T09:24:24;10.30;99.90
67163;DHT22;54092;53.088;8.850;2023-05-02T09:27:01;10.60;99.90
67163;DHT22;54092;53.088;8.850;2023-05-02T09:29:28;11.20;99.90
67163;DHT22;54092;53.088;8.850;2023-05-02T09:32:03;11.30;99.90
67163;DHT22;54092;53.088;8.850;2023-05-02T09:34:29;11.50;99.90
67163;DHT22;54092;53.088;8.850;2023-05-02T09:36:56;11.40;99.90
67163;DHT22;54092;53.088;8.850;2023-05-02T09:39:24;11.40;99.90
67163;DHT22;54092;53.088;8.850;2023-05-02T09:41:50;11.40;99.90
67163;DHT22;54092;53.088;8.850;2023-05-02T09:44:17;11.60;99.90
67163;DHT22;54092;53.088;8.850;2023-05-02T09:46:48;11.80;99.90
67163;DHT22;54092;53.088;8.850;2023-05-02T09:49:15;12.30;99.90
67163;DHT22;54092;53.088;8.850;2023-05-02T09:51:43;13.10;99.90
67163;DHT22;54092;53.088;8.850;2023-05-02T09:54:09;13.30;99.90
67163;DHT22;54092;53.088;8.850;2023-05-02T09:56:56;13.60;99.90
67163;DHT22;54092;53.088;8.850;2023-05-02T09:59:22;13.80;99.90
67163;DHT22;54092;53.088;8.850;2023-05-02T10:01:55;13.50;99.90
67163;DHT22;54092;53.088;8.850;2023-05-02T10:04:21;12.70;99.90
67163;DHT22;54092;53.088;8.850;2023-05-02T10:06:50;12.10;99.90
67163;DHT22;54092;53.088;8.850;2023-05-02T10:09:21;11.70;99.90
67163;DHT22;54092;53.088;8.850;2023-05-02T10:11:51;11.50;99.90
67163;DHT22;54092;53.088;8.850;2023-05-02T10:14:19;11.30;99.90
67163;DHT22;54092;53.088;8.850;2023-05-02T10:19:27;11.50;99.90
67163;DHT22;54092;53.088;8.850;2023-05-02T10:21:55;11.70;99.90
67163;DHT22;54092;53.088;8.850;2023-05-02T10:24:21;11.80;99.90
67163;DHT22;54092;53.088;8.850;2023-05-02T10:26:49;11.80;99.90
67163;DHT22;54092;53.088;8.850;2023-05-02T10:29:15;12.10;99.90
67163;DHT22;54092;53.088;8.850;2023-05-02T10:31:42;12.30;99.90
67163;DHT22;54092;53.088;8.850;2023-05-02T10:34:10;12.50;99.90
67163;DHT22;54092;53.088;8.850;2023-05-02T10:36:35;12.40;99.90
67163;DHT22;54092;53.088;8.850;2023-05-02T10:39:02;12.40;99.90
67163;DHT22;54092;53.088;8.850;2023-05-02T10:41:30;11.90;99.90
67163;DHT22;54092;53.088;8.850;2023-05-02T10:43:57;11.50;99.90
67163;DHT22;54092;53.088;8.850;2023-05-02T10:46:35;11.20;99.90
67163;DHT22;54092;53.088;8.850;2023-05-02T10:49:09;11.00;99.90
67163;DHT22;54092;53.088;8.850;2023-05-02T10:51:37;10.80;99.90
67163;DHT22;54092;53.088;8.850;2023-05-02T10:54:21;10.70;99.90
67163;DHT22;54092;53.088;8.850;2023-05-02T10:59:37;10.70;99.90
67163;DHT22;54092;53.088;8.850;2023-05-02T11:05:01;10.90;99.90
67163;DHT22;54092;53.088;8.850;2023-05-02T11:07:29;11.30;99.90
67163;DHT22;54092;53.088;8.850;2023-05-02T11:18:00;13.80;99.90
67163;DHT22;54092;53.088;8.850;2023-05-02T11:20:26;13.10;99.90
67163;DHT22;54092;53.088;8.850;2023-05-02T11:22:53;12.60;99.90
67163;DHT22;54092;53.088;8.850;2023-05-02T11:25:49;12.10;99.90
67163;DHT22;54092;53.088;8.850;2023-05-02T11:28:38;11.50;99.90
67163;DHT22;54092;53.088;8.850;2023-05-02T11:31:09;11.20;99.90
67163;DHT22;54092;53.088;8.850;2023-05-02T11:33:35;10.90;99.90
67163;DHT22;54092;53.088;8.850;2023-05-02T11:36:01;10.80;99.90
67163;DHT22;54092;53.088;8.850;2023-05-02T11:38:37;10.60;99.90
67163;DHT22;54092;53.088;8.850;2023-05-02T11:41:03;10.50;99.90
67163;DHT22;54092;53.088;8.850;2023-05-02T11:43:29;10.30;99.90
67163;DHT22;54092;53.088;8.850;2023-05-02T11:45:56;10.30;99.90
67163;DHT22;54092;53.088;8.850;2023-05-02T11:48:24;10.40;99.90
67163;DHT22;54092;53.088;8.850;2023-05-02T11:50:56;10.50;99.90
67163;DHT22;54092;53.088;8.850;2023-05-02T11:53:26;10.70;99.90
67163;DHT22;54092;53.088;8.850;2023-05-02T11:55:55;10.90;99.90
67163;DHT22;54092;53.088;8.850;2023-05-02T11:58:23;11.10;99.90
67163;DHT22;54092;53.088;8.850;2023-05-02T12:00:50;11.20;99.90
67163;DHT22;54092;53.088;8.850;2023-05-02T12:03:31;11.30;99.90
67163;DHT22;54092;53.088;8.850;2023-05-02T12:06:07;11.50;99.90
67163;DHT22;54092;53.088;8.850;2023-05-02T12:08:35;11.70;99.90
67163;DHT22;54092;53.088;8.850;2023-05-02T12:11:01;12.10;99.90
67163;DHT22;54092;53.088;8.850;2023-05-02T12:13:26;12.40;99.90
67163;DHT22;54092;53.088;8.850;2023-05-02T12:15:53;12.70;99.90
67163;DHT22;54092;53.088;8.850;2023-05-02T12:18:22;12.70;99.90
67163;DHT22;54092;53.088;8.850;2023-05-02T12:20:50;12.50;99.90
67163;DHT22;54092;53.088;8.850;2023-05-02T12:23:17;12.50;99.90
67163;DHT22;54092;53.088;8.850;2023-05-02T12:25:43;12.70;99.90
67163;DHT22;54092;53.088;8.850;2023-05-02T12:28:09;12.80;99.90
67163;DHT22;54092;53.088;8.850;2023-05-02T12:30:36;13.00;99.90
67163;DHT22;54092;53.088;8.850;2023-05-02T12:33:06;12.80;99.90
67163;DHT22;54092;53.088;8.850;2023-05-02T12:35:33;12.80;99.90
67163;DHT22;54092;53.088;8.850;2023-05-02T12:38:16;12.50;99.90
67163;DHT22;54092;53.088;8.850;2023-05-02T12:40:50;12.20;99.90
67163;DHT22;54092;53.088;8.850;2023-05-02T12:43:16;12.10;99.90
67163;DHT22;54092;53.088;8.850;2023-05-02T12:45:42;11.90;99.90
67163;DHT22;54092;53.088;8.850;2023-05-02T12:48:22;11.80;99.90
67163;DHT22;54092;53.088;8.850;2023-05-02T12:50:48;11.60;99.90
67163;DHT22;54092;53.088;8.850;2023-05-02T12:53:14;11.50;99.90
67163;DHT22;54092;53.088;8.850;2023-05-02T12:55:40;11.40;99.90
67163;DHT22;54092;53.088;8.850;2023-05-02T12:58:08;11.30;99.90
67163;DHT22;54092;53.088;8.850;2023-05-02T13:00:38;11.40;99.90
67163;DHT22;54092;53.088;8.850;2023-05-02T13:03:04;11.60;99.90
67163;DHT22;54092;53.088;8.850;2023-05-02T13:05:29;11.80;99.90
67163;DHT22;54092;53.088;8.850;2023-05-02T13:07:55;11.90;99.90
67163;DHT22;54092;53.088;8.850;2023-05-02T13:10:22;12.00;99.90
67163;DHT22;54092;53.088;8.850;2023-05-02T13:12:49;12.10;99.90
67163;DHT22;54092;53.088;8.850;2023-05-02T13:15:14;11.90;99.90
67163;DHT22;54092;53.088;8.850;2023-05-02T13:17:40;11.60;99.90
67163;DHT22;54092;53.088;8.850;2023-05-02T13:20:07;11.50;99.90
67163;DHT22;54092;53.088;8.850;2023-05-02T13:22:34;11.20;99.90
67163;DHT22;54092;53.088;8.850;2023-05-02T13:24:59;11.20;99.90
67163;DHT22;54092;53.088;8.850;2023-05-02T13:27:25;11.10;99.90
67163;DHT22;54092;53.088;8.850;2023-05-02T13:29:51;11.30;99.90
67163;DHT22;54092;53.088;8.850;2023-05-02T13:32:17;11.40;99.90
67163;DHT22;54092;53.088;8.850;2023-05-02T13:34:43;11.50;99.90
67163;DHT22;54092;53.088;8.850;2023-05-02T13:37:08;11.50;99.90
67163;DHT22;54092;53.088;8.850;2023-05-02T13:39:34;11.50;99.90
67163;DHT22;54092;53.088;8.850;2023-05-02T13:42:00;11.30;99.90
67163;DHT22;54092;53.088;8.850;2023-05-02T13:44:29;11.40;99.90
67163;DHT22;54092;53.088;8.850;2023-05-02T13:46:55;11.30;99.90
67163;DHT22;54092;53.088;8.850;2023-05-02T13:49:20;11.40;99.90
67163;DHT22;54092;53.088;8.850;2023-05-02T13:51:46;11.50;99.90
67163;DHT22;54092;53.088;8.850;2023-05-02T13:54:12;11.30;99.90
67163;DHT22;54092;53.088;8.850;2023-05-02T13:56:37;11.20;99.90
67163;DHT22;54092;53.088;8.850;2023-05-02T13:59:04;11.10;99.90
67163;DHT22;54092;53.088;8.850;2023-05-02T14:01:30;11.20;99.90
67163;DHT22;54092;53.088;8.850;2023-05-02T14:03:56;11.40;99.90
67163;DHT22;54092;53.088;8.850;2023-05-02T14:06:21;11.60;99.90
67163;DHT22;54092;53.088;8.850;2023-05-02T14:08:47;11.60;99.90
67163;DHT22;54092;53.088;8.850;2023-05-02T14:11:12;11.50;99.90
67163;DHT22;54092;53.088;8.850;2023-05-02T14:13:38;11.40;99.90
67163;DHT22;54092;53.088;8.850;2023-05-02T14:16:03;11.30;99.90
67163;DHT22;54092;53.088;8.850;2023-05-02T14:18:29;11.00;99.90
67163;DHT22;54092;53.088;8.850;2023-05-02T14:20:54;10.70;99.90
67163;DHT22;54092;53.088;8.850;2023-05-02T14:23:26;10.60;99.90
67163;DHT22;54092;53.088;8.850;2023-05-02T14:25:55;10.60;99.90
67163;DHT22;54092;53.088;8.850;2023-05-02T14:28:21;10.60;99.90
67163;DHT22;54092;53.088;8.850;2023-05-02T14:30:47;10.60;99.90
67163;DHT22;54092;53.088;8.850;2023-05-02T14:33:13;10.70;99.90
67163;DHT22;54092;53.088;8.850;2023-05-02T14:35:39;10.90;99.90
67163;DHT22;54092;53.088;8.850;2023-05-02T14:38:04;11.10;99.90
67163;DHT22;54092;53.088;8.850;2023-05-02T14:40:30;11.30;99.90
67163;DHT22;54092;53.088;8.850;2023-05-02T14:42:56;11.40;99.90
67163;DHT22;54092;53.088;8.850;2023-05-02T14:45:21;11.60;99.90
67163;DHT22;54092;53.088;8.850;2023-05-02T14:47:48;11.70;99.90
67163;DHT22;54092;53.088;8.850;2023-05-02T14:50:13;11.80;99.90
67163;DHT22;54092;53.088;8.850;2023-05-02T14:52:39;11.70;99.90
67163;DHT22;54092;53.088;8.850;2023-05-02T14:55:05;11.70;99.90
67163;DHT22;54092;53.088;8.850;2023-05-02T14:57:31;11.70;99.90
67163;DHT22;54092;53.088;8.850;2023-05-02T14:59:57;11.60;99.90
67163;DHT22;54092;53.088;8.850;2023-05-02T15:02:23;11.50;99.90
67163;DHT22;54092;53.088;8.850;2023-05-02T15:04:48;11.40;99.90
67163;DHT22;54092;53.088;8.850;2023-05-02T15:07:14;11.40;99.90
67163;DHT22;54092;53.088;8.850;2023-05-02T15:09:40;11.30;99.90
67163;DHT22;54092;53.088;8.850;2023-05-02T15:12:05;11.20;99.90
67163;DHT22;54092;53.088;8.850;2023-05-02T15:14:31;11.00;99.90
67163;DHT22;54092;53.088;8.850;2023-05-02T15:16:56;10.90;99.90
67163;DHT22;54092;53.088;8.850;2023-05-02T15:19:22;10.80;99.90
67163;DHT22;54092;53.088;8.850;2023-05-02T15:21:49;10.70;99.90
67163;DHT22;54092;53.088;8.850;2023-05-02T15:24:17;10.80;99.90
67163;DHT22;54092;53.088;8.850;2023-05-02T15:26:43;10.90;99.90
67163;DHT22;54092;53.088;8.850;2023-05-02T15:29:09;10.90;99.90
67163;DHT22;54092;53.088;8.850;2023-05-02T15:31:35;10.90;99.90
67163;DHT22;54092;53.088;8.850;2023-05-02T15:34:01;10.90;99.90
67163;DHT22;54092;53.088;8.850;2023-05-02T15:36:27;10.80;99.90
67163;DHT22;54092;53.088;8.850;2023-05-02T15:38:56;10.80;99.90
67163;DHT22;54092;53.088;8.850;2023-05-02T15:41:24;10.90;99.90
67163;DHT22;54092;53.088;8.850;2023-05-02T15:43:51;11.10;99.90
67163;DHT22;54092;53.088;8.850;2023-05-02T15:46:16;11.10;99.90
67163;DHT22;54092;53.088;8.850;2023-05-02T15:48:42;11.00;99.90
67163;DHT22;54092;53.088;8.850;2023-05-02T15:51:07;11.00;99.90
67163;DHT22;54092;53.088;8.850;2023-05-02T15:53:37;11.00;99.90
67163;DHT22;54092;53.088;8.850;2023-05-02T15:56:07;11.00;99.90
67163;DHT22;54092;53.088;8.850;2023-05-02T15:58:33;11.20;99.90
67163;DHT22;54092;53.088;8.850;2023-05-02T16:00:59;11.10;99.90
67163;DHT22;54092;53.088;8.850;2023-05-02T16:03:24;11.00;99.90
67163;DHT22;54092;53.088;8.850;2023-05-02T16:05:51;11.00;99.90
67163;DHT22;54092;53.088;8.850;2023-05-02T16:08:17;10.90;99.90
67163;DHT22;54092;53.088;8.850;2023-05-02T16:10:42;10.90;99.90
67163;DHT22;54092;53.088;8.850;2023-05-02T16:13:08;10.80;99.90
67163;DHT22;54092;53.088;8.850;2023-05-02T16:15:34;10.70;99.90